Time;durP1;ratioP1;P1;durP2;ratioP2;P2;SDS_P1;SDS_P2;PMS_P1;PMS_P2;Temp;Humidity;BMP_temperature;BMP_pressure;BME280_temperature;BME280_humidity;BME280_pressure;Samples;Min_cycle;Max_cycle;Signal;HPM_P1;HPM_P2
2023/12/19 00:00:36;;;;;;;3.80;3.50;;;15.70;64.90;16.60;101871.00;;;;5059857;28;20213;-45
2023/12/19 00:03:01;;;;;;;3.70;3.40;;;15.70;64.80;16.60;101870.00;;;;5057491;28;20179;-45
2023/12/19 00:05:27;;;;;;;3.70;3.40;;;15.70;64.80;16.60;101879.00;;;;5060919;28;20191;-45
2023/12/19 00:07:53;;;;;;;3.73;3.43;;;15.70;64.90;16.60;101870.00;;;;5059289;28;20226;-46
2023/12/19 00:10:18;;;;;;;3.50;3.20;;;15.70;64.80;16.60;101872.00;;;;5057627;28;20170;-45
2023/12/19 00:12:44;;;;;;;3.60;3.30;;;15.70;64.90;16.60;101872.00;;;;5054106;28;20166;-50
2023/12/19 00:15:10;;;;;;;3.67;3.37;;;15.70;65.00;16.60;101880.00;;;;5057313;28;20667;-45
2023/12/19 00:17:36;;;;;;;3.47;3.17;;;15.70;65.10;16.60;101873.00;;;;5059660;28;20194;-45
2023/12/19 00:20:02;;;;;;;3.60;3.30;;;15.70;65.10;16.60;101872.00;;;;5056435;28;20202;-45
2023/12/19 00:22:28;;;;;;;3.60;3.30;;;15.70;65.10;16.50;101875.00;;;;5059379;28;20176;-45
2023/12/19 00:24:54;;;;;;;3.30;3.10;;;15.60;65.10;16.50;101850.00;;;;5060014;28;20239;-45
2023/12/19 00:27:19;;;;;;;3.70;3.40;;;15.60;65.10;16.50;101845.00;;;;5059080;28;20195;-46
2023/12/19 00:29:45;;;;;;;3.70;3.40;;;15.60;65.10;16.50;101841.00;;;;5060404;28;20682;-46
2023/12/19 00:32:11;;;;;;;3.70;3.40;;;15.60;65.20;16.50;101847.00;;;;5057075;28;20187;-45
2023/12/19 00:34:36;;;;;;;3.80;3.50;;;15.60;65.20;16.50;101823.00;;;;5059132;28;20182;-45
2023/12/19 00:37:02;;;;;;;3.50;3.20;;;15.60;65.30;16.50;101830.00;;;;5058652;28;20203;-46
2023/12/19 00:39:28;;;;;;;3.67;3.37;;;15.60;65.30;16.50;101837.00;;;;5058114;28;20234;-45
2023/12/19 00:41:54;;;;;;;3.60;3.30;;;15.60;65.30;16.50;101847.00;;;;5057799;28;20224;-45
2023/12/19 00:44:19;;;;;;;3.63;3.33;;;15.60;65.20;16.50;101831.00;;;;5056740;28;20284;-45
2023/12/19 00:46:45;;;;;;;3.57;3.27;;;15.60;65.30;16.50;101822.00;;;;5059820;28;20177;-44
2023/12/19 00:49:11;;;;;;;3.90;3.43;;;15.60;65.20;16.50;101843.00;;;;5056615;28;20582;-45
2023/12/19 00:51:37;;;;;;;3.50;3.20;;;15.60;65.30;16.50;101852.00;;;;5059475;28;20665;-45
2023/12/19 00:54:03;;;;;;;3.50;3.20;;;15.60;65.30;16.50;101852.00;;;;5057488;28;20174;-45
2023/12/19 00:56:29;;;;;;;3.47;3.17;;;15.50;65.30;16.40;101849.00;;;;5058143;28;20178;-45
2023/12/19 00:58:54;;;;;;;3.30;3.10;;;15.50;65.30;16.40;101839.00;;;;5056010;28;20209;-45
2023/12/19 01:01:23;;;;;;;3.30;3.00;;;15.50;65.40;16.40;101836.00;;;;5056177;28;20170;-44
2023/12/19 01:03:49;;;;;;;3.50;3.20;;;15.50;65.40;16.40;101827.00;;;;5059681;28;20181;-44
2023/12/19 01:06:15;;;;;;;3.27;3.07;;;15.50;65.40;16.40;101828.00;;;;5055394;28;20180;-44
2023/12/19 01:08:41;;;;;;;3.30;3.07;;;15.50;65.40;16.40;101825.00;;;;5058449;28;20280;-46
2023/12/19 01:11:09;;;;;;;3.30;3.10;;;15.50;65.50;16.40;101823.00;;;;5055649;28;20205;-45
2023/12/19 01:13:38;;;;;;;3.10;2.90;;;15.50;65.40;16.40;101822.00;;;;5057358;28;20174;-45
2023/12/19 01:16:04;;;;;;;3.30;3.10;;;15.50;65.50;16.40;101817.00;;;;5055208;28;20178;-44
2023/12/19 01:18:30;;;;;;;4.00;3.40;;;15.50;65.60;16.30;101821.00;;;;5054830;28;20587;-45
2023/12/19 01:20:56;;;;;;;3.37;3.10;;;15.40;65.50;16.30;101814.00;;;;5055446;28;20173;-45
2023/12/19 01:23:23;;;;;;;3.40;3.10;;;15.40;65.60;16.30;101809.00;;;;5055210;28;20196;-45
2023/12/19 01:25:48;;;;;;;3.43;3.23;;;15.40;65.50;16.30;101809.00;;;;5058084;28;20250;-45
2023/12/19 01:28:14;;;;;;;3.67;3.37;;;15.50;65.60;16.30;101806.00;;;;5057165;28;20627;-46
2023/12/19 01:30:40;;;;;;;3.10;2.90;;;15.40;65.60;16.30;101808.00;;;;5058247;28;20173;-45
2023/12/19 01:33:07;;;;;;;3.10;2.87;;;15.40;65.60;16.30;101804.00;;;;5053487;28;20240;-45
2023/12/19 01:35:33;;;;;;;3.57;3.27;;;15.40;65.60;16.30;101760.00;;;;5056959;28;20178;-45
2023/12/19 01:38:00;;;;;;;3.60;3.20;;;15.40;65.60;16.30;101784.00;;;;5056039;28;20198;-45
2023/12/19 01:40:31;;;;;;;3.40;3.10;;;15.40;66.10;16.30;101781.00;;;;5055429;28;20201;-45
2023/12/19 01:43:00;;;;;;;3.37;3.10;;;15.40;66.20;16.30;101784.00;;;;5056215;28;20226;-46
2023/12/19 01:45:27;;;;;;;3.33;3.10;;;15.40;66.10;16.30;101792.00;;;;5055654;28;20181;-50
2023/12/19 01:47:53;;;;;;;3.13;2.93;;;15.40;66.00;16.30;101778.00;;;;5056721;28;20211;-46
2023/12/19 01:50:18;;;;;;;3.17;2.90;;;15.40;65.90;16.30;101782.00;;;;5055121;28;20178;-44
2023/12/19 01:53:02;;;;;;;3.60;3.30;;;15.40;65.80;16.30;101774.00;;;;5050708;28;20170;-44
2023/12/19 01:55:28;;;;;;;3.27;3.07;;;15.40;65.90;16.30;101780.00;;;;5056151;28;20183;-44
2023/12/19 01:57:54;;;;;;;3.17;2.97;;;15.40;65.80;16.30;101793.00;;;;5056375;28;20212;-44
2023/12/19 02:00:20;;;;;;;3.20;3.00;;;15.30;65.80;16.30;101790.00;;;;5050366;28;20221;-45
2023/12/19 02:02:46;;;;;;;3.33;3.13;;;15.40;65.90;16.20;101776.00;;;;5056759;28;20193;-45
2023/12/19 02:05:12;;;;;;;3.27;3.00;;;15.30;65.80;16.20;101770.00;;;;5057215;28;20205;-45
2023/12/19 02:07:39;;;;;;;3.30;3.00;;;15.30;65.90;16.20;101765.00;;;;5056169;28;20249;-45
2023/12/19 02:10:06;;;;;;;3.47;3.20;;;15.30;66.00;16.20;101776.00;;;;5054934;28;20262;-45
2023/12/19 02:12:31;;;;;;;3.23;2.97;;;15.30;65.90;16.20;101769.00;;;;5054669;28;20200;-44
2023/12/19 02:14:57;;;;;;;3.23;3.03;;;15.30;65.90;16.20;101757.00;;;;5055344;28;20716;-45
2023/12/19 02:17:23;;;;;;;3.40;3.10;;;15.30;66.00;16.20;101764.00;;;;5055019;28;20244;-44
2023/12/19 02:19:51;;;;;;;3.20;3.00;;;15.30;66.00;16.20;101761.00;;;;5055759;28;20198;-45
2023/12/19 02:22:17;;;;;;;3.13;2.87;;;15.30;66.00;16.20;101757.00;;;;5054528;28;20265;-45
2023/12/19 02:24:43;;;;;;;3.43;3.13;;;15.30;65.90;16.20;101756.00;;;;5057506;28;20249;-44
2023/12/19 02:27:09;;;;;;;2.97;2.77;;;15.30;65.90;16.20;101750.00;;;;5038378;28;20168;-45
2023/12/19 02:29:34;;;;;;;3.27;3.07;;;15.30;65.90;16.20;101748.00;;;;5038572;28;20230;-44
2023/12/19 02:32:00;;;;;;;3.27;3.00;;;15.20;65.70;16.20;101744.00;;;;5054168;28;20669;-44
2023/12/19 02:34:26;;;;;;;3.20;3.00;;;15.20;65.80;16.20;101742.00;;;;5053385;28;20182;-44
2023/12/19 02:36:52;;;;;;;3.50;3.20;;;15.20;66.10;16.10;101735.00;;;;5056862;28;20204;-45
2023/12/19 02:39:17;;;;;;;3.30;3.00;;;15.20;66.10;16.10;101736.00;;;;5054418;28;20234;-45
2023/12/19 02:41:43;;;;;;;2.93;2.73;;;15.20;66.00;16.10;101689.00;;;;5057362;28;20261;-44
2023/12/19 02:44:09;;;;;;;3.23;3.03;;;15.20;66.00;16.10;101717.00;;;;5054436;28;20170;-44
2023/12/19 02:46:35;;;;;;;3.20;3.00;;;15.20;66.00;16.10;101711.00;;;;5056578;28;20166;-45
2023/12/19 02:49:01;;;;;;;3.17;2.90;;;15.20;66.00;16.10;101715.00;;;;5055266;28;20225;-44
2023/12/19 02:51:26;;;;;;;3.20;2.90;;;15.20;66.00;16.10;101719.00;;;;5055525;28;20194;-44
2023/12/19 02:53:53;;;;;;;2.90;2.70;;;15.20;66.00;16.10;101721.00;;;;5054982;28;20177;-46
2023/12/19 02:56:19;;;;;;;3.07;2.87;;;15.20;66.00;16.10;101708.00;;;;5054279;28;20201;-44
2023/12/19 02:58:45;;;;;;;3.03;2.77;;;15.20;66.00;16.10;101710.00;;;;5054184;28;20275;-45
2023/12/19 03:01:11;;;;;;;3.20;2.90;;;15.10;65.90;16.00;101704.00;;;;5051650;28;20190;-45
2023/12/19 03:03:38;;;;;;;3.00;2.80;;;15.10;66.00;16.00;101690.00;;;;5057370;28;20165;-44
2023/12/19 03:06:04;;;;;;;3.07;2.87;;;15.10;66.00;16.00;101675.00;;;;5052683;28;20520;-45
2023/12/19 03:08:30;;;;;;;3.00;2.80;;;15.10;66.00;16.00;101670.00;;;;5054666;28;20228;-45
2023/12/19 03:10:56;;;;;;;2.90;2.70;;;15.10;66.00;16.00;101664.00;;;;5054565;28;20303;-45
2023/12/19 03:13:22;;;;;;;2.90;2.70;;;15.10;66.00;16.00;101665.00;;;;5053173;28;20236;-44
2023/12/19 03:15:47;;;;;;;2.83;2.63;;;15.10;65.90;16.00;101673.00;;;;5055784;28;20169;-46
2023/12/19 03:18:13;;;;;;;2.80;2.60;;;15.10;66.00;16.00;101669.00;;;;5052978;28;20209;-46
2023/12/19 03:20:39;;;;;;;3.00;2.80;;;15.10;66.00;16.00;101668.00;;;;5055798;28;20256;-45
2023/12/19 03:23:04;;;;;;;2.70;2.50;;;15.10;66.00;16.00;101654.00;;;;5057130;28;20674;-44
2023/12/19 03:25:30;;;;;;;3.10;2.90;;;15.10;66.10;16.00;101643.00;;;;5058111;28;20167;-46
2023/12/19 03:27:56;;;;;;;2.93;2.73;;;15.10;66.00;16.00;101641.00;;;;5060111;28;20189;-44
2023/12/19 03:30:22;;;;;;;2.80;2.60;;;15.10;66.00;16.00;101639.00;;;;5056782;28;20229;-45
2023/12/19 03:32:47;;;;;;;2.70;2.50;;;15.00;65.90;16.00;101633.00;;;;5056916;28;20182;-44
2023/12/19 03:35:13;;;;;;;2.93;2.73;;;15.00;66.00;16.00;101623.00;;;;5058986;28;20170;-45
2023/12/19 03:37:39;;;;;;;2.80;2.60;;;15.00;66.00;15.90;101631.00;;;;5060520;28;20197;-45
2023/12/19 03:40:06;;;;;;;3.13;2.93;;;15.00;66.00;15.90;101628.00;;;;5057212;28;20201;-44
2023/12/19 03:42:33;;;;;;;3.00;2.80;;;15.00;65.90;15.90;101639.00;;;;5057436;28;20545;-45
2023/12/19 03:44:58;;;;;;;3.00;2.80;;;15.00;65.90;15.90;101639.00;;;;5058707;28;20201;-44
2023/12/19 03:47:24;;;;;;;3.10;2.90;;;15.00;66.70;15.90;101640.00;;;;5057266;28;20213;-44
2023/12/19 03:49:50;;;;;;;2.90;2.70;;;15.00;66.10;15.90;101628.00;;;;5059235;28;20239;-44
2023/12/19 03:52:16;;;;;;;3.07;2.60;;;15.00;66.00;15.90;101626.00;;;;5056714;28;20170;-44
2023/12/19 03:54:42;;;;;;;3.00;2.80;;;15.00;66.00;15.90;101628.00;;;;5059508;28;20257;-45
2023/12/19 03:57:08;;;;;;;3.10;2.80;;;15.00;65.90;15.90;101621.00;;;;5056674;28;20723;-45
2023/12/19 03:59:34;;;;;;;2.90;2.70;;;15.00;65.90;15.90;101631.00;;;;5058466;28;20210;-45
2023/12/19 04:02:00;;;;;;;2.90;2.70;;;14.90;65.80;15.90;101615.00;;;;5058914;28;20169;-44
2023/12/19 04:04:25;;;;;;;2.80;2.60;;;14.90;65.80;15.90;101633.00;;;;5059407;28;20698;-45
2023/12/19 04:06:51;;;;;;;2.80;2.60;;;14.90;65.80;15.90;101632.00;;;;5059283;28;20638;-45
2023/12/19 04:09:17;;;;;;;2.60;2.40;;;14.90;65.90;15.90;101625.00;;;;5056974;28;20274;-45
2023/12/19 04:11:47;;;;;;;3.03;2.83;;;14.90;65.80;15.90;101639.00;;;;5060118;28;20643;-44
2023/12/19 04:14:16;;;;;;;2.70;2.50;;;14.90;65.80;15.80;101629.00;;;;5052731;28;20175;-44
2023/12/19 04:16:42;;;;;;;2.80;2.60;;;14.90;65.90;15.80;101628.00;;;;5060100;28;20667;-44
2023/12/19 04:19:08;;;;;;;2.87;2.47;;;14.90;66.00;15.80;101617.00;;;;5056933;28;20290;-44
2023/12/19 04:21:33;;;;;;;2.90;2.70;;;14.90;66.00;15.80;101608.00;;;;5058894;28;20664;-45
2023/12/19 04:23:59;;;;;;;2.80;2.60;;;14.90;65.90;15.80;101595.00;;;;5057639;28;20182;-45
2023/12/19 04:26:25;;;;;;;2.77;2.57;;;14.90;65.90;15.80;101596.00;;;;5059317;28;20799;-45
2023/12/19 04:28:50;;;;;;;2.90;2.60;;;14.90;65.90;15.80;101591.00;;;;5059266;28;20197;-44
2023/12/19 04:31:16;;;;;;;3.53;2.60;;;14.90;66.30;15.30;101583.00;;;;5056748;28;20171;-45
2023/12/19 04:33:42;;;;;;;3.87;2.57;;;14.90;66.60;15.80;101574.00;;;;5057880;28;20170;-45
2023/12/19 04:36:09;;;;;;;3.83;2.70;;;14.90;66.10;15.80;101577.00;;;;5056847;28;20612;-44
2023/12/19 04:38:35;;;;;;;3.60;2.80;;;14.80;66.50;15.70;101564.00;;;;5058320;28;20194;-44
2023/12/19 04:41:01;;;;;;;4.10;2.67;;;14.80;66.40;15.70;101569.00;;;;5056813;28;20291;-46
2023/12/19 04:43:27;;;;;;;7.20;2.70;;;14.90;66.70;15.70;101567.00;;;;5057421;28;20178;-44
2023/12/19 04:45:53;;;;;;;3.00;2.40;;;14.80;66.50;15.70;101561.00;;;;5058803;28;20757;-44
2023/12/19 04:48:18;;;;;;;4.70;2.87;;;14.80;66.50;15.70;101548.00;;;;5057933;28;20201;-45
2023/12/19 04:50:44;;;;;;;4.43;2.77;;;14.80;66.60;15.70;101540.00;;;;5058319;28;20170;-45
2023/12/19 04:53:10;;;;;;;3.43;2.77;;;14.80;66.60;15.70;101545.00;;;;5056450;28;20170;-45
2023/12/19 04:55:36;;;;;;;3.30;2.67;;;14.80;66.60;15.70;101543.00;;;;5055580;28;20656;-45
2023/12/19 04:58:02;;;;;;;4.10;2.60;;;14.80;66.70;15.70;101540.00;;;;5064929;28;20197;-45
2023/12/19 05:00:27;;;;;;;3.33;2.40;;;14.80;66.80;15.70;101554.00;;;;5059791;28;20205;-45
2023/12/19 05:02:54;;;;;;;3.73;2.60;;;14.70;66.60;15.60;101553.00;;;;5056683;28;20174;-45
2023/12/19 05:05:23;;;;;;;4.23;2.63;;;14.70;66.60;15.60;101549.00;;;;5051631;28;20766;-45
2023/12/19 05:07:48;;;;;;;2.87;2.67;;;14.70;66.70;15.60;101554.00;;;;5058829;28;20355;-45
2023/12/19 05:10:14;;;;;;;2.97;2.63;;;14.70;67.00;15.60;101551.00;;;;5056104;28;20264;-45
2023/12/19 05:12:40;;;;;;;5.43;2.70;;;14.60;66.80;15.60;101544.00;;;;5059893;28;20181;-45
2023/12/19 05:15:06;;;;;;;2.63;2.43;;;14.70;66.80;15.60;101538.00;;;;5056970;28;20186;-45
2023/12/19 05:17:32;;;;;;;2.57;2.37;;;14.70;66.80;15.60;101534.00;;;;5057614;28;20255;-45
2023/12/19 05:19:59;;;;;;;2.67;2.40;;;14.70;67.60;15.60;101527.00;;;;5053317;28;20201;-45
2023/12/19 05:22:25;;;;;;;4.20;2.70;;;14.70;66.80;15.60;101542.00;;;;5053446;28;20252;-45
2023/12/19 05:24:50;;;;;;;2.63;2.43;;;14.60;66.60;15.50;101528.00;;;;5054438;28;20657;-45
2023/12/19 05:27:16;;;;;;;4.07;2.40;;;14.60;66.60;15.50;101534.00;;;;5057190;28;20171;-45
2023/12/19 05:29:43;;;;;;;2.60;2.40;;;14.70;66.80;15.50;101522.00;;;;5058580;28;20257;-45
2023/12/19 05:32:10;;;;;;;3.40;2.60;;;14.70;66.80;15.50;101522.00;;;;5055605;28;20228;-45
2023/12/19 05:34:35;;;;;;;5.57;2.70;;;14.70;66.90;15.50;101519.00;;;;5055624;28;20177;-45
2023/12/19 05:37:01;;;;;;;3.07;2.40;;;14.60;66.80;15.50;101510.00;;;;5056445;28;20177;-45
2023/12/19 05:39:27;;;;;;;2.60;2.40;;;14.60;66.80;15.50;101514.00;;;;5056174;28;20209;-45
2023/12/19 05:41:56;;;;;;;2.67;2.47;;;14.60;66.90;15.50;101500.00;;;;5057637;28;20173;-44
2023/12/19 05:44:22;;;;;;;3.30;2.30;;;14.60;66.90;15.50;101499.00;;;;5054825;28;20265;-44
2023/12/19 05:46:49;;;;;;;5.40;2.50;;;14.60;66.90;15.50;101489.00;;;;5058200;28;20598;-44
2023/12/19 05:49:14;;;;;;;2.83;2.30;;;14.50;66.80;15.50;101486.00;;;;5054910;28;20806;-47
2023/12/19 05:51:40;;;;;;;2.63;2.40;;;14.60;67.00;15.50;101492.00;;;;5058014;28;20253;-44
2023/12/19 05:54:06;;;;;;;2.70;2.50;;;14.50;66.90;15.40;101482.00;;;;5055050;28;20182;-44
2023/12/19 05:56:33;;;;;;;2.73;2.40;;;14.60;67.00;15.40;101477.00;;;;5056339;28;20170;-46
2023/12/19 05:58:59;;;;;;;3.30;2.30;;;14.50;67.10;15.40;101464.00;;;;5053513;28;20233;-46
2023/12/19 06:01:24;;;;;;;3.43;2.70;;;14.50;67.10;15.40;101470.00;;;;5051795;28;20261;-45
2023/12/19 06:03:50;;;;;;;2.50;2.30;;;14.50;67.00;15.40;101475.00;;;;5054655;28;20231;-44
2023/12/19 06:06:16;;;;;;;5.10;2.50;;;14.50;67.10;15.40;101467.00;;;;5053988;28;20267;-45
2023/12/19 06:08:44;;;;;;;3.00;2.50;;;14.50;67.00;15.40;101471.00;;;;5057896;28;20267;-44
2023/12/19 06:11:10;;;;;;;2.57;2.37;;;14.50;67.10;15.40;101467.00;;;;5050016;28;20182;-45
2023/12/19 06:13:36;;;;;;;4.40;2.70;;;14.50;67.10;15.40;101460.00;;;;5056210;28;20204;-45
2023/12/19 06:16:05;;;;;;;5.27;2.70;;;14.50;67.00;15.40;101448.00;;;;5056137;28;20335;-45
2023/12/19 06:18:32;;;;;;;4.73;2.50;;;14.40;67.00;15.40;101450.00;;;;5056243;28;20202;-45
2023/12/19 06:20:59;;;;;;;3.17;2.10;;;14.40;67.00;15.30;101458.00;;;;5055308;28;20571;-45
2023/12/19 06:23:28;;;;;;;3.80;2.30;;;14.50;67.10;15.30;101459.00;;;;5055523;28;20178;-45
2023/12/19 06:25:54;;;;;;;2.20;2.00;;;14.40;67.10;15.30;101473.00;;;;5057136;28;20178;-45
2023/12/19 06:28:20;;;;;;;3.20;2.13;;;14.40;67.00;15.30;101461.00;;;;5056487;28;20217;-44
2023/12/19 06:30:46;;;;;;;2.40;2.20;;;14.40;67.80;15.30;101466.00;;;;5056952;28;20227;-45
2023/12/19 06:33:11;;;;;;;3.03;2.40;;;14.40;67.00;15.30;101469.00;;;;5051595;28;20264;-45
2023/12/19 06:35:42;;;;;;;2.60;2.40;;;14.40;67.00;15.30;101468.00;;;;5053838;28;20186;-45
2023/12/19 06:38:08;;;;;;;3.27;2.20;;;14.40;67.00;15.30;101467.00;;;;5056414;28;20206;-47
2023/12/19 06:40:34;;;;;;;2.40;2.10;;;14.40;67.00;15.30;101470.00;;;;5058341;28;20565;-45
2023/12/19 06:43:03;;;;;;;2.43;2.23;;;14.30;66.90;15.30;101468.00;;;;5055181;28;20682;-45
2023/12/19 06:45:29;;;;;;;2.90;2.30;;;14.40;67.00;15.20;101469.00;;;;5055933;28;20174;-45
2023/12/19 06:47:54;;;;;;;2.30;2.10;;;14.30;66.90;15.20;101470.00;;;;5056883;28;20813;-45
2023/12/19 06:50:20;;;;;;;2.40;2.20;;;14.30;66.90;15.20;101465.00;;;;5054873;28;20179;-45
2023/12/19 06:52:46;;;;;;;2.57;2.07;;;14.30;66.80;15.20;101469.00;;;;5058003;28;20173;-45
2023/12/19 06:55:12;;;;;;;2.80;2.10;;;14.30;66.80;15.20;101458.00;;;;5054554;28;20232;-45
2023/12/19 06:57:38;;;;;;;2.30;2.10;;;14.30;66.90;15.20;101463.00;;;;5060719;28;20264;-45
2023/12/19 07:00:06;;;;;;;2.20;2.00;;;14.30;66.90;15.20;101467.00;;;;5059451;28;20209;-44
2023/12/19 07:02:32;;;;;;;2.30;2.10;;;14.30;66.90;15.20;101458.00;;;;5060016;28;20267;-46
2023/12/19 07:04:58;;;;;;;2.33;2.13;;;14.30;66.90;15.20;101453.00;;;;5061465;28;20205;-44
2023/12/19 07:07:24;;;;;;;2.30;2.10;;;14.20;66.80;15.20;101456.00;;;;5058988;28;20178;-45
2023/12/19 07:09:50;;;;;;;2.57;2.23;;;14.20;66.80;15.20;101463.00;;;;5061286;28;20363;-45
2023/12/19 07:12:16;;;;;;;2.43;2.30;;;14.30;66.90;15.20;101442.00;;;;5058590;28;20186;-44
2023/12/19 07:14:41;;;;;;;2.70;2.27;;;14.20;66.80;15.20;101435.00;;;;5061628;28;20182;-45
2023/12/19 07:17:07;;;;;;;2.33;2.13;;;14.20;66.80;15.10;101433.00;;;;5059116;28;20235;-45
2023/12/19 07:19:33;;;;;;;2.37;2.17;;;14.20;66.80;15.10;101438.00;;;;5060510;28;20230;-45
2023/12/19 07:21:59;;;;;;;2.63;2.10;;;14.20;66.80;15.10;101437.00;;;;5060136;28;20184;-45
2023/12/19 07:24:25;;;;;;;2.20;2.00;;;14.20;66.80;15.10;101434.00;;;;5058933;28;20838;-44
2023/12/19 07:26:52;;;;;;;2.77;2.10;;;14.20;66.80;15.10;101435.00;;;;5063008;28;20270;-44
2023/12/19 07:29:19;;;;;;;2.17;2.07;;;14.20;66.80;15.10;101433.00;;;;5058354;28;20277;-44
2023/12/19 07:31:44;;;;;;;2.43;2.23;;;14.20;66.90;15.10;101429.00;;;;5061820;28;20173;-44
2023/12/19 07:34:10;;;;;;;2.10;2.00;;;14.20;66.80;15.10;101418.00;;;;5056393;28;20239;-45
2023/12/19 07:36:36;;;;;;;2.13;1.93;;;14.20;66.90;15.10;101422.00;;;;5060401;28;20186;-45
2023/12/19 07:39:03;;;;;;;2.07;1.97;;;14.10;66.70;15.10;101416.00;;;;5050597;28;20214;-45
2023/12/19 07:41:31;;;;;;;2.30;2.10;;;14.10;66.80;15.10;101408.00;;;;5059005;28;20181;-45
2023/12/19 07:43:57;;;;;;;2.23;2.10;;;14.20;66.80;15.10;101401.00;;;;5055745;28;20184;-44
2023/12/19 07:46:22;;;;;;;2.00;1.90;;;14.10;66.70;15.10;101411.00;;;;5058238;28;20541;-46
2023/12/19 07:48:48;;;;;;;2.13;2.03;;;14.10;66.70;15.10;101402.00;;;;5060321;28;20332;-46
2023/12/19 07:51:26;;;;;;;2.10;2.00;;;14.10;66.70;15.10;101403.00;;;;5056390;28;20167;-46
2023/12/19 07:53:52;;;;;;;2.00;1.90;;;14.10;66.70;15.00;101405.00;;;;5053772;28;20186;-46
2023/12/19 07:56:18;;;;;;;2.07;1.90;;;14.10;66.70;15.00;101408.00;;;;5056245;28;20182;-44
2023/12/19 07:58:43;;;;;;;2.10;2.00;;;14.10;66.80;15.00;101414.00;;;;5059586;28;20189;-45
2023/12/19 08:01:13;;;;;;;2.07;1.97;;;14.10;67.50;15.00;101420.00;;;;5053044;28;20174;-44
2023/12/19 08:03:40;;;;;;;2.27;2.10;;;14.10;66.70;15.00;101407.00;;;;5060973;28;20262;-46
2023/12/19 08:06:06;;;;;;;2.00;1.90;;;14.10;66.70;15.00;101404.00;;;;5053903;28;20887;-44
2023/12/19 08:08:32;;;;;;;2.20;2.00;;;14.00;66.70;15.00;101401.00;;;;5057303;28;20194;-44
2023/12/19 08:10:58;;;;;;;2.10;2.00;;;14.00;66.60;15.00;101404.00;;;;5057420;28;20178;-45
2023/12/19 08:13:24;;;;;;;1.90;1.80;;;14.00;66.60;15.00;101391.00;;;;5055509;28;20183;-45
2023/12/19 08:15:50;;;;;;;2.03;1.93;;;14.00;66.60;14.90;101396.00;;;;5058399;28;20581;-45
2023/12/19 08:18:16;;;;;;;2.10;2.00;;;14.10;66.80;14.90;101315.00;;;;5060122;28;20233;-45
2023/12/19 08:20:42;;;;;;;1.93;1.83;;;14.00;66.60;15.00;101385.00;;;;5057453;28;20296;-45
2023/12/19 08:23:08;;;;;;;2.00;1.90;;;14.00;66.70;14.90;101395.00;;;;5056359;28;20173;-45
2023/12/19 08:25:34;;;;;;;2.17;1.97;;;14.00;66.80;14.90;101397.00;;;;5058287;28;20170;-45
2023/12/19 08:28:01;;;;;;;2.03;1.93;;;14.00;66.70;14.90;101402.00;;;;5059806;28;20201;-46
2023/12/19 08:30:27;;;;;;;2.90;1.93;;;14.00;66.70;14.90;101413.00;;;;5054233;28;20236;-45
2023/12/19 08:32:54;;;;;;;2.00;1.80;;;14.00;66.70;14.90;101410.00;;;;5053390;28;20190;-45
2023/12/19 08:35:20;;;;;;;1.83;1.73;;;14.00;66.60;14.90;101410.00;;;;5040055;28;20676;-45
2023/12/19 08:37:47;;;;;;;2.17;1.90;;;14.00;66.80;14.90;101407.00;;;;5051688;28;20225;-45
2023/12/19 08:40:13;;;;;;;4.60;1.90;;;14.00;66.80;14.90;101404.00;;;;5053373;28;20197;-45
2023/12/19 08:42:40;;;;;;;2.67;2.07;;;14.00;66.60;14.90;101398.00;;;;5052128;28;20179;-45
2023/12/19 08:45:13;;;;;;;2.20;2.00;;;14.00;66.80;14.90;101393.00;;;;5053833;28;20250;-47
2023/12/19 08:47:40;;;;;;;1.95;1.85;;;14.00;67.00;14.90;101388.00;;;;5041310;28;1057702;-44
2023/12/19 08:50:08;;;;;;;2.00;1.90;;;14.00;67.10;14.90;101380.00;;;;5048056;28;20265;-45
2023/12/19 08:52:36;;;;;;;5.33;2.10;;;14.10;67.40;14.90;101373.00;;;;5056909;28;20186;-45
2023/12/19 08:55:04;;;;;;;5.33;2.23;;;14.10;67.50;14.90;101361.00;;;;5056507;28;20181;-45
2023/12/19 08:57:30;;;;;;;5.47;2.10;;;14.20;68.10;15.00;101363.00;;;;5056976;28;20186;-45
2023/12/19 08:59:57;;;;;;;2.80;2.03;;;14.30;67.70;15.10;101349.00;;;;5057540;28;20203;-45
2023/12/19 09:02:22;;;;;;;2.67;2.33;;;14.40;67.60;15.10;101345.00;;;;5051879;28;20257;-44
2023/12/19 09:04:48;;;;;;;4.00;1.90;;;14.50;67.80;15.20;101334.00;;;;5059167;28;20185;-44
2023/12/19 09:07:14;;;;;;;3.00;1.97;;;14.50;67.70;15.20;101344.00;;;;5055215;28;20182;-46
2023/12/19 09:09:39;;;;;;;3.10;1.90;;;14.50;67.70;15.30;101342.00;;;;5052664;28;20828;-45
2023/12/19 09:12:05;;;;;;;2.60;1.90;;;14.70;67.80;15.30;101348.00;;;;5050986;28;20184;-45
2023/12/19 09:14:31;;;;;;;4.03;2.20;;;14.70;67.60;15.40;101345.00;;;;5056562;28;20189;-45
2023/12/19 09:16:57;;;;;;;4.20;2.10;;;14.80;67.40;15.50;101347.00;;;;5058175;28;20181;-44
2023/12/19 09:19:22;;;;;;;3.93;1.97;;;14.90;67.40;15.50;101343.00;;;;5050637;28;20206;-45
2023/12/19 09:21:48;;;;;;;2.37;1.93;;;15.00;67.10;15.70;101342.00;;;;5056353;28;20283;-45
2023/12/19 09:24:14;;;;;;;4.60;1.90;;;15.20;66.90;15.50;101344.00;;;;5056296;28;20754;-45
2023/12/19 09:26:40;;;;;;;4.70;2.10;;;15.30;67.00;15.80;101352.00;;;;5060554;28;20210;-45
2023/12/19 09:29:06;;;;;;;2.23;1.70;;;15.50;66.90;16.00;101352.00;;;;5056923;28;20197;-45
2023/12/19 09:31:32;;;;;;;2.80;1.93;;;15.60;66.70;16.10;101337.00;;;;5054204;28;20175;-45
2023/12/19 09:33:58;;;;;;;2.13;1.90;;;15.70;66.50;16.00;101332.00;;;;5055864;28;20193;-44
2023/12/19 09:36:26;;;;;;;1.80;1.70;;;15.80;67.10;16.30;101330.00;;;;5055373;28;20265;-45
2023/12/19 09:38:52;;;;;;;2.10;1.90;;;15.90;66.20;16.40;101311.00;;;;5058812;28;20197;-44
2023/12/19 09:41:18;;;;;;;2.27;1.77;;;16.00;66.10;16.50;101325.00;;;;5056107;28;20178;-45
2023/12/19 09:43:44;;;;;;;1.80;1.70;;;16.10;66.10;16.50;101298.00;;;;5059983;28;20180;-45
2023/12/19 09:46:10;;;;;;;2.13;1.90;;;16.20;66.10;16.60;101304.00;;;;5056258;28;20247;-45
2023/12/19 09:48:36;;;;;;;2.00;1.80;;;16.20;66.00;16.70;101300.00;;;;5057934;28;20297;-45
2023/12/19 09:51:05;;;;;;;2.07;1.70;;;16.30;66.10;16.80;101300.00;;;;5057669;28;20281;-44
2023/12/19 09:53:32;;;;;;;2.43;1.80;;;16.30;66.20;16.80;101299.00;;;;5058107;28;20572;-44
2023/12/19 09:56:01;;;;;;;1.80;1.70;;;16.40;66.20;16.80;101285.00;;;;5056519;28;20190;-45
2023/12/19 09:58:28;;;;;;;1.80;1.70;;;16.40;66.20;16.90;101282.00;;;;5056739;28;20212;-45
2023/12/19 10:00:58;;;;;;;2.80;1.80;;;16.40;66.10;17.00;101278.00;;;;5058130;28;20266;-45
2023/12/19 10:03:25;;;;;;;2.10;1.90;;;16.50;66.30;17.00;101274.00;;;;5056295;28;20185;-44
2023/12/19 10:05:50;;;;;;;1.77;1.67;;;16.50;66.20;17.00;101262.00;;;;5058429;28;20210;-45
2023/12/19 10:08:18;;;;;;;3.00;1.53;;;16.50;66.30;17.10;101267.00;;;;5055747;28;20508;-45
2023/12/19 10:10:54;;;;;;;1.70;1.60;;;16.50;66.30;17.10;101268.00;;;;5058895;28;20178;-45
2023/12/19 10:13:31;;;;;;;1.80;1.70;;;16.60;66.40;17.10;101255.00;;;;5052295;28;20180;-45
2023/12/19 10:16:04;;;;;;;1.70;1.60;;;16.60;66.50;17.10;101245.00;;;;5057942;28;20228;-46
2023/12/19 10:18:30;;;;;;;1.40;1.30;;;16.60;66.40;17.20;101236.00;;;;5056614;28;20673;-44
2023/12/19 10:21:13;;;;;;;2.23;1.87;;;16.60;66.60;17.20;101205.00;;;;5057938;28;20218;-46
2023/12/19 10:23:42;;;;;;;1.70;1.60;;;16.60;66.50;17.20;101229.00;;;;5059717;28;20730;-44
2023/12/19 10:26:09;;;;;;;1.90;1.80;;;16.60;66.50;17.20;101233.00;;;;5057832;28;20188;-45
2023/12/19 10:28:36;;;;;;;1.70;1.60;;;16.70;66.50;17.20;101222.00;;;;5058755;28;20190;-45
2023/12/19 10:31:15;;;;;;;2.30;1.50;;;16.70;66.60;17.30;101221.00;;;;5056615;28;20190;-45
2023/12/19 10:33:49;;;;;;;1.47;1.40;;;16.60;66.50;17.30;101213.00;;;;5054473;28;20170;-45
2023/12/19 10:36:31;;;;;;;1.70;1.60;;;16.70;66.50;17.30;101201.00;;;;5047525;28;20180;-45
2023/12/19 10:38:58;;;;;;;1.70;1.60;;;16.70;66.50;17.30;101209.00;;;;5054870;28;20631;-44
2023/12/19 10:41:31;;;;;;;1.90;1.70;;;16.70;66.50;17.30;101195.00;;;;5056065;28;20183;-45
2023/12/19 10:43:59;;;;;;;1.60;1.50;;;16.70;66.50;17.40;101205.00;;;;5056059;28;20179;-46